NCAR-RAP Real-Time Weather Data

Output produced by METARs form (17 December 2018  07:19 UTC)
found at http://weather.rap.ucar.edu/surface/
 
RJNW 170700Z 28005KT 250V320 8000 -SHRA FEW000 SCT010 BKN015 FEW020CB 06/05 Q1006
RJNW 170600Z 25015G25KT 9999 -SHRA FEW003 SCT010 BKN015 FEW020CB 06/05 Q1006
RJNW 170500Z 30004KT 260V350 9999 -SHRA FEW003 SCT010 BKN015 FEW020CB 07/05 Q1005
RJNW 170400Z 24010KT 220V280 9999 -SHRA FEW010 SCT030 FEW030CB BKN035 09/04 Q1006
RJNW 170300Z 26005KT 220V310 9999 FEW010 SCT020 10/06 Q1007
RJNW 170200Z 29003KT 220V020 9999 FEW010 SCT060 BKN070 08/06 Q1008
RJNW 170100Z 26006KT 250V310 9999 -SHRA FEW000 SCT030 BKN060 08/07 Q1009
RJNW 170000Z 00000KT 9999 R25/1300VP1800U FEW000 SCT030 BKN060 07/06 Q1009
RJNW 162300Z 06003KT 030V090 0400 R25/0200V0400D FG FEW000 SCT025 BKN040 05/05 Q1009
RJNW 161000Z 21011KT 9999 FEW030 SCT040 BKN080 09/01 Q1014
RJNW 160900Z 23013KT 9999 FEW030 SCT120 BKN/// 09/01 Q1015
RJNW 160800Z 22011KT 9999 FEW030 SCT120 BKN/// 08/M00 Q1015
RJNW 160700Z 22008KT 9999 FEW030 SCT110 BKN/// 08/01 Q1016
RJNW 160600Z 21009KT 9999 FEW030 SCT070 BKN/// 08/M00 Q1016
RJNW 160500Z 22011KT 9999 FEW030 BKN/// 08/M02 Q1017
RJNW 160400Z 20008KT 9999 FEW030 SCT150 BKN/// 08/M00 Q1018
RJNW 160300Z 20006KT 160V250 9999 FEW030 SCT160 BKN/// 07/02 Q1019
RJNW 160200Z 18005KT 120V250 9999 FEW020 SCT160 BKN/// 05/01 Q1021
RJNW 160100Z 16004KT 120V190 9999 FEW020 SCT170 BKN/// 04/M00 Q1022
RJNW 160000Z 17004KT 140V200 9999 FEW020 SCT150 BKN/// 04/M00 Q1023
RJNW 151000Z VRB01KT 9999 FEW020 SCT045 M02/M03 Q1028
RJNW 150900Z 00000KT 9999 FEW020 BKN045 M00/M01 Q1028
RJNW 150800Z 29003KT 9999 FEW020 SCT050 01/M04 Q1028
RJNW 150700Z 30003KT 260V340 9999 FEW020 SCT040 02/M02 Q1028
RJNW 150600Z 29004KT 250V340 9999 FEW020 SCT030 BKN040 03/M03 Q1028
RJNW 150500Z 31003KT 280V350 9999 -SHSN FEW020 SCT030 BKN040 02/M01 Q1028
RJNW 150400Z 25004KT 9999 -SHSN FEW020 SCT040 BKN045 01/M01 Q1028
RJNW 150300Z 27003KT 230V300 9999 -SHSN FEW000 SCT020 BKN030 01/M01 Q1028
RJNW 150200Z 31005KT 240V050 2000 -SHSN FEW007 SCT020 BKN040 01/M02 Q1029
RJNW 150100Z 25003KT 9999 VCSH FEW007 SCT025 BKN060 01/M01 Q1029
RJNW 150000Z VRB03KT 2000 R25/1100VP1800D -SHSN FEW005 SCT010 BKN025 M00/M02 Q1029
RJNW 142300Z 30003KT 240V010 9999 -SHGS FEW015 SCT020 BKN030 01/M02 Q1029